Time;durP1;ratioP1;P1;durP2;ratioP2;P2;SDS_P1;SDS_P2;PMS_P1;PMS_P2;Temp;Humidity;BMP_temperature;BMP_pressure;BME280_temperature;BME280_humidity;BME280_pressure;Samples;Min_cycle;Max_cycle;Signal;HPM_P1;HPM_P2
2023/08/10 00:01:20;;;;;;;2.00;0.88;;;14.40;99.90;;;;;;5054537;28;20095;-70
2023/08/10 00:03:45;;;;;;;1.27;0.65;;;14.40;99.90;;;;;;5074170;28;20049;-70
2023/08/10 00:06:11;;;;;;;2.30;0.65;;;14.40;99.90;;;;;;5043130;28;20037;-70
2023/08/10 00:08:37;;;;;;;4.88;0.80;;;14.40;99.90;;;;;;5038405;28;20041;-70
2023/08/10 00:11:04;;;;;;;2.92;0.65;;;14.40;99.90;;;;;;5041922;28;20379;-70
2023/08/10 00:13:29;;;;;;;1.27;0.50;;;14.40;99.90;;;;;;5038950;28;20095;-70
2023/08/10 00:15:55;;;;;;;3.40;1.08;;;14.40;99.90;;;;;;5042159;28;20056;-70
2023/08/10 00:18:21;;;;;;;2.70;0.80;;;14.40;99.90;;;;;;5075768;28;20025;-70
2023/08/10 00:20:47;;;;;;;2.28;0.95;;;14.30;99.90;;;;;;5076042;28;20498;-70
2023/08/10 00:23:12;;;;;;;3.22;0.60;;;14.30;99.90;;;;;;5075214;28;20060;-70
2023/08/10 00:25:38;;;;;;;3.83;0.70;;;14.30;99.90;;;;;;5042983;28;21518;-69
2023/08/10 00:28:04;;;;;;;4.13;0.70;;;14.20;99.90;;;;;;5042901;28;20059;-70
2023/08/10 00:30:30;;;;;;;3.00;0.70;;;14.30;99.90;;;;;;5038745;28;20038;-70
2023/08/10 00:32:55;;;;;;;2.17;0.80;;;14.30;99.90;;;;;;5040792;28;20048;-70
2023/08/10 00:35:21;;;;;;;1.65;0.60;;;14.20;99.90;;;;;;5042331;28;20039;-70
2023/08/10 00:37:47;;;;;;;1.45;0.57;;;14.20;99.90;;;;;;5042772;28;20467;-70
2023/08/10 00:40:12;;;;;;;2.90;0.47;;;14.10;99.90;;;;;;5042844;28;20044;-70
2023/08/10 00:42:39;;;;;;;3.00;0.70;;;14.10;99.90;;;;;;5043163;28;20441;-70
2023/08/10 00:45:05;;;;;;;2.20;0.70;;;14.00;99.90;;;;;;5038645;28;20033;-70
2023/08/10 00:47:31;;;;;;;2.97;0.75;;;14.10;99.90;;;;;;5074969;28;20044;-70
2023/08/10 00:49:57;;;;;;;6.10;0.75;;;14.00;99.90;;;;;;5040390;28;20092;-70
2023/08/10 00:52:22;;;;;;;1.88;0.90;;;14.00;99.90;;;;;;5033663;28;20068;-70
2023/08/10 00:54:48;;;;;;;4.18;0.70;;;13.90;99.90;;;;;;5079241;28;20079;-70
2023/08/10 00:57:14;;;;;;;3.35;0.82;;;13.80;99.90;;;;;;5048356;28;20033;-70
2023/08/10 00:59:40;;;;;;;3.13;0.57;;;13.80;99.90;;;;;;5048139;28;20029;-70
2023/08/10 01:02:06;;;;;;;3.97;0.50;;;13.70;99.90;;;;;;5041984;28;20567;-70
2023/08/10 01:04:32;;;;;;;2.05;0.52;;;13.70;99.90;;;;;;5077792;28;20052;-70
2023/08/10 01:07:06;;;;;;;1.42;0.60;;;13.70;99.90;;;;;;5047182;28;20032;-70
2023/08/10 01:09:41;;;;;;;2.33;0.77;;;13.70;99.90;;;;;;5026806;28;20033;-70
2023/08/10 01:12:43;;;;;;;1.77;0.77;;;13.70;99.90;;;;;;5047633;28;20029;-70
2023/08/10 01:15:39;;;;;;;1.75;0.63;;;13.70;99.90;;;;;;5045934;28;20037;-70
2023/08/10 01:18:10;;;;;;;1.55;0.70;;;13.80;99.90;;;;;;5038928;28;20106;-70
2023/08/10 01:20:37;;;;;;;3.22;0.60;;;13.70;99.90;;;;;;5045874;28;20048;-70
2023/08/10 01:23:13;;;;;;;2.45;0.80;;;13.80;99.90;;;;;;5045982;28;20049;-69
2023/08/10 01:25:44;;;;;;;2.03;0.68;;;13.80;99.90;;;;;;5046739;28;20041;-69
2023/08/10 01:28:12;;;;;;;1.13;0.60;;;13.80;99.90;;;;;;5078331;28;20420;-70
2023/08/10 01:30:40;;;;;;;1.60;0.60;;;13.80;99.90;;;;;;5044787;28;20535;-69
2023/08/10 01:33:05;;;;;;;1.77;0.60;;;13.80;99.90;;;;;;5039187;28;20041;-70
2023/08/10 01:35:31;;;;;;;1.70;0.68;;;13.90;99.90;;;;;;5081209;28;20029;-70
2023/08/10 01:37:56;;;;;;;3.88;0.70;;;13.90;99.90;;;;;;5050700;28;20475;-70
2023/08/10 01:40:22;;;;;;;1.52;0.65;;;13.90;99.90;;;;;;5050831;28;20037;-69
2023/08/10 01:42:48;;;;;;;2.55;0.75;;;13.90;99.90;;;;;;5048592;28;20045;-69
2023/08/10 01:45:13;;;;;;;1.85;0.60;;;13.90;99.90;;;;;;5051280;28;20036;-69
2023/08/10 01:47:49;;;;;;;1.23;0.65;;;13.80;99.90;;;;;;5049598;28;20133;-69
2023/08/10 01:50:18;;;;;;;1.52;0.75;;;13.80;99.90;;;;;;5030683;28;20056;-70
2023/08/10 01:52:57;;;;;;;2.45;0.60;;;13.80;99.90;;;;;;5078040;28;20499;-69
2023/08/10 01:55:23;;;;;;;3.20;0.63;;;13.80;99.90;;;;;;5044044;28;20033;-69
2023/08/10 01:57:49;;;;;;;1.80;0.68;;;13.80;99.90;;;;;;5045895;28;20040;-70
2023/08/10 02:00:16;;;;;;;0.55;0.35;;;13.80;99.90;;;;;;5078106;28;20040;-69
2023/08/10 02:02:42;;;;;;;1.10;0.50;;;13.80;99.90;;;;;;5076530;28;20636;-70
2023/08/10 02:05:10;;;;;;;1.98;1.00;;;13.80;99.90;;;;;;5067325;28;20046;-69
2023/08/10 02:07:36;;;;;;;1.52;0.60;;;13.80;99.90;;;;;;5074098;28;20078;-69
2023/08/10 02:10:01;;;;;;;2.65;0.68;;;13.80;99.90;;;;;;5043873;28;20453;-69
2023/08/10 02:12:27;;;;;;;1.15;0.50;;;13.70;99.90;;;;;;5078917;28;20123;-70
2023/08/10 02:14:53;;;;;;;3.13;0.50;;;13.80;99.90;;;;;;5046454;28;20041;-69
2023/08/10 02:17:18;;;;;;;1.95;0.77;;;13.70;99.90;;;;;;5044778;28;20037;-69
2023/08/10 02:19:44;;;;;;;0.77;0.43;;;13.80;99.90;;;;;;5045868;28;20037;-69
2023/08/10 02:22:09;;;;;;;0.88;0.43;;;13.70;99.90;;;;;;5042396;28;20402;-70
2023/08/10 02:24:35;;;;;;;1.48;0.70;;;13.70;99.90;;;;;;5040584;28;20075;-69
2023/08/10 02:27:02;;;;;;;1.25;0.50;;;13.60;99.90;;;;;;5043842;28;20087;-69
2023/08/10 02:29:27;;;;;;;2.25;0.75;;;13.60;99.90;;;;;;5069323;28;20543;-69
2023/08/10 02:31:53;;;;;;;1.50;0.73;;;13.60;99.90;;;;;;5043025;28;20033;-70
2023/08/10 02:34:18;;;;;;;1.80;0.70;;;13.50;99.90;;;;;;5042576;28;20119;-70
2023/08/10 02:36:44;;;;;;;2.40;0.75;;;13.50;99.90;;;;;;5046126;28;20045;-69
2023/08/10 02:39:09;;;;;;;2.70;0.73;;;13.40;99.90;;;;;;5076746;28;20303;-69
2023/08/10 02:41:35;;;;;;;1.30;0.50;;;13.40;99.90;;;;;;5043717;28;20391;-69
2023/08/10 02:44:01;;;;;;;1.13;0.68;;;13.40;99.90;;;;;;5045279;28;20040;-70
2023/08/10 02:46:26;;;;;;;3.15;0.88;;;13.30;99.90;;;;;;5073575;28;20123;-70
2023/08/10 02:48:53;;;;;;;3.45;0.88;;;13.30;99.90;;;;;;5043563;28;20103;-70
2023/08/10 02:51:19;;;;;;;1.45;0.77;;;13.20;99.90;;;;;;5046228;28;20033;-70
2023/08/10 02:53:45;;;;;;;2.10;0.73;;;13.30;99.90;;;;;;5044386;28;20083;-70
2023/08/10 02:56:11;;;;;;;1.58;0.68;;;13.20;99.90;;;;;;5043407;28;20029;-69
2023/08/10 02:58:36;;;;;;;1.80;0.80;;;13.30;99.90;;;;;;5043925;28;20279;-70
2023/08/10 03:01:06;;;;;;;1.88;0.90;;;13.20;99.90;;;;;;5056677;28;20545;-69
2023/08/10 03:03:33;;;;;;;1.70;0.82;;;13.30;99.90;;;;;;5074460;28;20033;-70
2023/08/10 03:05:59;;;;;;;3.85;0.85;;;13.30;99.90;;;;;;5045822;28;20513;-70
2023/08/10 03:08:25;;;;;;;1.77;0.73;;;13.20;99.90;;;;;;5059105;28;20033;-70
2023/08/10 03:10:51;;;;;;;4.72;0.75;;;13.20;99.90;;;;;;5044481;28;20560;-70
2023/08/10 03:13:17;;;;;;;1.73;0.90;;;13.30;99.90;;;;;;5071797;28;20271;-70
2023/08/10 03:15:42;;;;;;;4.28;0.90;;;13.30;99.90;;;;;;5042958;28;20041;-70
2023/08/10 03:18:08;;;;;;;1.50;0.68;;;13.30;99.90;;;;;;5040364;28;20136;-70
2023/08/10 03:20:34;;;;;;;5.03;0.80;;;13.30;99.90;;;;;;5045544;28;20442;-70
2023/08/10 03:22:59;;;;;;;5.47;1.00;;;13.30;99.90;;;;;;5042917;28;20048;-69
2023/08/10 03:25:25;;;;;;;3.65;1.10;;;13.30;99.90;;;;;;5045021;28;20048;-70
2023/08/10 03:27:50;;;;;;;4.05;0.90;;;13.30;99.90;;;;;;5043458;28;20560;-70
2023/08/10 03:30:16;;;;;;;4.18;1.00;;;13.40;99.90;;;;;;5074609;28;20166;-70
2023/08/10 03:32:42;;;;;;;3.60;1.10;;;13.40;99.90;;;;;;5055897;28;20064;-69
2023/08/10 03:35:08;;;;;;;2.70;0.98;;;13.40;99.90;;;;;;5075513;28;20032;-70
2023/08/10 03:37:34;;;;;;;1.90;1.10;;;13.50;99.90;;;;;;5041862;28;20033;-70
2023/08/10 03:39:59;;;;;;;2.97;0.90;;;13.50;99.90;;;;;;5042877;28;20036;-70
2023/08/10 03:42:25;;;;;;;4.45;1.10;;;13.50;99.90;;;;;;5044544;28;20037;-70
2023/08/10 03:44:50;;;;;;;2.80;1.10;;;13.50;99.90;;;;;;5043306;28;20053;-70
2023/08/10 03:47:16;;;;;;;3.70;1.10;;;13.50;99.90;;;;;;5074662;28;20451;-70
2023/08/10 03:49:41;;;;;;;2.53;1.02;;;13.50;99.90;;;;;;5046570;28;20091;-70
2023/08/10 03:52:07;;;;;;;1.75;0.80;;;13.50;99.90;;;;;;5044219;28;20446;-70
2023/08/10 03:54:33;;;;;;;2.47;1.17;;;13.60;99.90;;;;;;5057470;28;20060;-70
2023/08/10 03:56:58;;;;;;;1.77;0.85;;;13.60;99.90;;;;;;5042362;28;20494;-70
2023/08/10 03:59:24;;;;;;;3.35;1.30;;;13.60;99.90;;;;;;5040906;28;20462;-70
2023/08/10 04:01:49;;;;;;;1.20;0.80;;;13.60;99.90;;;;;;5043107;28;20037;-70
2023/08/10 04:04:15;;;;;;;2.30;0.90;;;13.60;99.90;;;;;;5038038;28;20749;-70
2023/08/10 04:06:41;;;;;;;2.50;1.25;;;13.60;99.90;;;;;;5042824;28;20037;-70
2023/08/10 04:09:06;;;;;;;2.47;1.00;;;13.70;99.90;;;;;;5041714;28;20779;-70
2023/08/10 04:11:32;;;;;;;2.38;1.10;;;13.70;99.90;;;;;;5043881;28;20429;-70
2023/08/10 04:13:58;;;;;;;4.93;1.05;;;13.70;99.90;;;;;;5021070;28;20045;-70
2023/08/10 04:16:23;;;;;;;2.20;1.00;;;13.70;99.90;;;;;;5046820;28;20167;-70
2023/08/10 04:18:49;;;;;;;3.65;1.20;;;13.70;99.90;;;;;;5071674;28;20065;-70
2023/08/10 04:21:15;;;;;;;3.58;1.23;;;13.70;99.90;;;;;;5039905;28;20040;-70
2023/08/10 04:23:41;;;;;;;5.20;1.40;;;13.70;99.90;;;;;;5043227;28;20059;-70
2023/08/10 04:26:07;;;;;;;2.88;1.00;;;13.70;99.90;;;;;;5044603;28;20104;-70
2023/08/10 04:28:33;;;;;;;2.80;0.90;;;13.70;99.90;;;;;;5073097;28;20049;-70
2023/08/10 04:30:59;;;;;;;2.28;1.02;;;13.70;99.90;;;;;;5041117;28;20040;-70
2023/08/10 04:33:24;;;;;;;2.30;1.27;;;13.70;99.90;;;;;;5075366;28;20048;-70
2023/08/10 04:35:50;;;;;;;2.40;1.17;;;13.70;99.90;;;;;;5076479;28;20048;-70
2023/08/10 04:38:16;;;;;;;3.90;1.60;;;13.70;99.90;;;;;;5042612;28;20036;-70
2023/08/10 04:40:41;;;;;;;3.15;1.38;;;13.70;99.90;;;;;;5042645;28;20604;-70
2023/08/10 04:43:08;;;;;;;2.38;1.30;;;13.80;99.90;;;;;;5019588;28;20037;-70
2023/08/10 04:45:34;;;;;;;3.03;1.25;;;13.80;99.90;;;;;;5041358;28;20025;-70
2023/08/10 04:47:59;;;;;;;3.25;1.20;;;13.80;99.90;;;;;;5075067;28;20505;-70
2023/08/10 04:50:25;;;;;;;3.70;1.25;;;13.80;99.90;;;;;;5043170;28;20045;-70
2023/08/10 04:52:51;;;;;;;2.72;1.13;;;13.80;99.90;;;;;;5040982;28;20041;-70
2023/08/10 04:55:18;;;;;;;2.15;1.02;;;13.80;99.90;;;;;;5042932;28;20036;-70
2023/08/10 04:57:44;;;;;;;2.33;1.08;;;13.90;99.90;;;;;;5041735;28;20415;-70
2023/08/10 05:00:13;;;;;;;3.10;1.30;;;13.80;99.90;;;;;;5072120;28;20047;-70
2023/08/10 05:02:39;;;;;;;2.75;1.35;;;13.90;99.90;;;;;;5037387;28;20049;-70
2023/08/10 05:05:06;;;;;;;4.05;1.10;;;13.90;99.90;;;;;;5059650;28;20087;-70
2023/08/10 05:07:32;;;;;;;2.40;0.90;;;13.90;99.90;;;;;;5039907;28;20036;-70
2023/08/10 05:09:59;;;;;;;2.42;1.27;;;13.90;99.90;;;;;;5074814;28;20565;-70
2023/08/10 05:12:25;;;;;;;3.75;1.15;;;14.00;99.90;;;;;;5045534;28;20113;-70
2023/08/10 05:14:51;;;;;;;3.00;1.15;;;13.90;99.90;;;;;;5075503;28;20167;-70
2023/08/10 05:17:16;;;;;;;2.35;1.17;;;14.00;99.90;;;;;;5075721;28;20134;-70
2023/08/10 05:19:42;;;;;;;3.60;1.50;;;14.00;99.90;;;;;;5039355;28;20041;-70
2023/08/10 05:22:07;;;;;;;4.13;1.17;;;14.00;99.90;;;;;;5041663;28;20040;-70
2023/08/10 05:24:33;;;;;;;2.40;1.10;;;14.10;99.90;;;;;;5038434;28;20033;-70
2023/08/10 05:27:00;;;;;;;2.28;0.93;;;14.10;99.90;;;;;;5043191;28;20556;-70
2023/08/10 05:29:27;;;;;;;3.90;1.85;;;14.10;99.90;;;;;;5040245;28;20410;-70
2023/08/10 05:31:52;;;;;;;3.58;1.10;;;14.10;99.90;;;;;;5046427;28;20109;-70
2023/08/10 05:34:18;;;;;;;4.22;1.25;;;14.10;99.90;;;;;;5041355;28;20506;-70
2023/08/10 05:36:43;;;;;;;4.53;1.30;;;14.10;99.90;;;;;;5043882;28;20036;-70
2023/08/10 05:39:09;;;;;;;2.65;1.13;;;14.20;99.90;;;;;;5040598;28;20037;-70
2023/08/10 05:41:35;;;;;;;3.78;1.15;;;14.20;99.90;;;;;;5045564;28;20144;-70
2023/08/10 05:44:00;;;;;;;4.28;0.90;;;14.20;99.90;;;;;;5079399;28;20045;-70
2023/08/10 05:46:26;;;;;;;4.60;1.25;;;14.30;99.90;;;;;;5043984;28;20076;-70
2023/08/10 05:48:52;;;;;;;1.38;0.90;;;14.30;99.90;;;;;;5042198;28;20034;-70
2023/08/10 05:51:17;;;;;;;3.17;1.00;;;14.30;99.90;;;;;;5043035;28;20051;-70
2023/08/10 05:53:44;;;;;;;3.35;1.00;;;14.40;99.90;;;;;;5074679;28;20040;-70
2023/08/10 05:56:10;;;;;;;3.47;1.38;;;14.40;99.90;;;;;;5044107;28;20633;-70
2023/08/10 05:58:35;;;;;;;2.08;1.10;;;14.40;99.90;;;;;;5046471;28;20147;-70
2023/08/10 06:01:01;;;;;;;2.75;1.30;;;14.50;99.90;;;;;;5059403;28;20116;-70
2023/08/10 06:03:27;;;;;;;3.55;1.10;;;14.50;99.90;;;;;;5047554;28;20498;-70
2023/08/10 06:05:54;;;;;;;3.63;1.00;;;14.50;99.90;;;;;;5048608;28;20033;-70
2023/08/10 06:08:19;;;;;;;2.58;1.17;;;14.50;99.90;;;;;;5073851;28;20139;-70
2023/08/10 06:10:49;;;;;;;2.72;1.02;;;14.60;99.90;;;;;;5043839;28;20053;-70
2023/08/10 06:13:15;;;;;;;1.83;0.98;;;14.60;99.90;;;;;;5077872;28;20116;-70
2023/08/10 06:15:40;;;;;;;3.42;1.27;;;14.60;99.90;;;;;;5042112;28;20422;-70
2023/08/10 06:18:06;;;;;;;4.35;1.30;;;14.70;99.90;;;;;;5077149;28;20048;-70
2023/08/10 06:20:33;;;;;;;5.32;1.40;;;14.70;99.90;;;;;;5043519;28;20060;-70
2023/08/10 06:22:59;;;;;;;3.15;1.20;;;14.80;99.90;;;;;;5038261;28;20077;-70
2023/08/10 06:25:24;;;;;;;2.38;1.00;;;14.80;99.90;;;;;;5040568;28;20120;-70
2023/08/10 06:27:50;;;;;;;2.55;1.17;;;14.80;99.90;;;;;;5073782;28;20098;-70
2023/08/10 06:30:16;;;;;;;3.00;1.02;;;14.80;99.90;;;;;;5041164;28;20032;-70
2023/08/10 06:32:42;;;;;;;3.22;1.00;;;14.90;99.90;;;;;;5036645;28;20449;-70
2023/08/10 06:35:09;;;;;;;4.80;1.50;;;15.00;99.90;;;;;;5069629;28;20033;-70
2023/08/10 06:37:35;;;;;;;2.13;0.93;;;15.50;99.90;;;;;;5027801;28;20079;-70
2023/08/10 06:40:01;;;;;;;4.68;1.27;;;16.40;99.90;;;;;;5038324;28;20029;-71
2023/08/10 06:42:27;;;;;;;4.60;0.98;;;17.10;99.90;;;;;;5046313;28;20472;-71
2023/08/10 06:44:52;;;;;;;3.95;1.27;;;17.30;99.90;;;;;;5051353;28;20124;-71
2023/08/10 06:47:18;;;;;;;4.38;1.10;;;17.20;99.90;;;;;;5045736;28;20555;-71
2023/08/10 06:49:43;;;;;;;2.50;0.77;;;17.20;99.90;;;;;;5040916;28;20498;-71
2023/08/10 06:52:09;;;;;;;3.10;1.00;;;17.10;99.90;;;;;;5038919;28;20032;-71
2023/08/10 06:54:35;;;;;;;5.03;0.80;;;17.00;99.90;;;;;;5067984;28;20406;-71
2023/08/10 06:57:01;;;;;;;2.10;0.60;;;16.90;99.90;;;;;;5040308;28;20052;-71
2023/08/10 06:59:26;;;;;;;2.50;0.80;;;16.90;99.90;;;;;;5074116;28;20037;-71
2023/08/10 07:01:52;;;;;;;2.03;0.75;;;16.80;99.90;;;;;;5040873;28;20040;-70
2023/08/10 07:04:18;;;;;;;2.83;0.40;;;16.70;99.90;;;;;;5037094;28;20041;-71
2023/08/10 07:06:44;;;;;;;5.50;0.70;;;16.60;99.90;;;;;;5037123;28;20048;-71
2023/08/10 07:09:10;;;;;;;1.05;0.57;;;16.60;99.90;;;;;;5039922;28;20055;-71
2023/08/10 07:11:35;;;;;;;2.78;0.68;;;16.50;99.90;;;;;;5042046;28;20028;-71
2023/08/10 07:14:02;;;;;;;1.23;0.50;;;16.50;99.90;;;;;;5037578;28;21481;-71
2023/08/10 07:16:28;;;;;;;2.45;0.63;;;16.40;99.90;;;;;;5039585;28;20465;-70
2023/08/10 07:18:54;;;;;;;4.55;0.52;;;16.40;99.90;;;;;;5022596;28;20124;-71
2023/08/10 07:21:20;;;;;;;3.53;0.80;;;16.40;99.90;;;;;;5038882;28;20047;-71
2023/08/10 07:23:46;;;;;;;1.52;0.52;;;16.40;99.90;;;;;;5040096;28;20040;-71
2023/08/10 07:26:12;;;;;;;3.35;0.60;;;16.40;99.90;;;;;;5034259;28;20047;-71
2023/08/10 07:28:38;;;;;;;3.08;1.27;;;16.30;99.90;;;;;;5041260;28;20458;-71
2023/08/10 07:31:03;;;;;;;1.95;0.40;;;16.30;99.90;;;;;;5040385;28;20588;-70
2023/08/10 07:33:29;;;;;;;1.30;0.50;;;16.30;99.90;;;;;;5035274;28;20111;-71
2023/08/10 07:35:55;;;;;;;1.55;0.47;;;16.30;99.90;;;;;;5066727;28;20086;-71
2023/08/10 07:38:21;;;;;;;4.78;0.65;;;16.30;99.90;;;;;;5033686;28;20048;-71
2023/08/10 07:40:47;;;;;;;1.85;0.50;;;16.30;99.90;;;;;;5044370;28;20037;-70
2023/08/10 07:43:13;;;;;;;2.13;0.40;;;16.30;99.90;;;;;;5034874;28;20063;-72
2023/08/10 07:45:38;;;;;;;3.40;0.38;;;16.30;99.90;;;;;;5043044;28;20507;-70
2023/08/10 07:48:04;;;;;;;3.90;0.85;;;16.30;99.90;;;;;;5076006;28;20311;-70
2023/08/10 07:50:31;;;;;;;1.38;0.60;;;16.30;99.90;;;;;;5041480;28;20033;-70
2023/08/10 07:52:57;;;;;;;1.67;0.82;;;16.40;99.90;;;;;;5039783;28;20041;-70
2023/08/10 07:55:22;;;;;;;0.82;0.40;;;16.40;99.90;;;;;;5040571;28;20047;-70
2023/08/10 07:57:49;;;;;;;1.45;0.50;;;16.50;99.90;;;;;;5041348;28;20045;-70
2023/08/10 08:00:16;;;;;;;4.13;0.57;;;16.60;99.90;;;;;;5042895;28;20072;-70
2023/08/10 08:02:41;;;;;;;1.83;0.60;;;16.70;99.90;;;;;;5038983;28;20490;-70
2023/08/10 08:05:07;;;;;;;1.67;0.45;;;16.70;99.90;;;;;;5034484;28;20551;-70
2023/08/10 08:07:33;;;;;;;1.85;0.50;;;16.70;99.90;;;;;;5037554;28;20071;-70
2023/08/10 08:09:59;;;;;;;2.15;0.40;;;16.80;99.90;;;;;;5039495;28;20041;-70
2023/08/10 08:12:26;;;;;;;1.83;0.40;;;16.70;99.90;;;;;;5039800;28;20040;-70
2023/08/10 08:14:52;;;;;;;2.10;0.50;;;16.70;99.90;;;;;;5036226;28;20068;-71
2023/08/10 08:17:19;;;;;;;0.75;0.50;;;16.70;99.90;;;;;;5038624;28;20055;-71
2023/08/10 08:19:44;;;;;;;1.02;0.32;;;16.80;99.90;;;;;;5035716;28;20413;-70
2023/08/10 08:22:10;;;;;;;1.10;0.30;;;16.80;99.90;;;;;;5038875;28;20033;-71
2023/08/10 08:24:35;;;;;;;1.77;0.40;;;16.80;99.90;;;;;;5034434;28;20147;-71
2023/08/10 08:27:01;;;;;;;2.83;0.63;;;16.90;99.90;;;;;;5033303;28;20063;-71
2023/08/10 08:29:27;;;;;;;2.03;0.60;;;16.90;99.90;;;;;;5019233;28;20427;-71
2023/08/10 08:31:52;;;;;;;2.63;0.60;;;16.90;99.90;;;;;;5034612;28;20047;-71
2023/08/10 08:34:18;;;;;;;2.15;0.60;;;16.90;99.90;;;;;;5065642;28;20921;-71
2023/08/10 08:36:44;;;;;;;1.67;0.60;;;16.90;99.90;;;;;;5035323;28;20119;-71
2023/08/10 08:39:10;;;;;;;1.38;0.43;;;16.90;99.90;;;;;;5017123;28;20483;-71
2023/08/10 08:41:37;;;;;;;2.78;0.60;;;16.90;99.90;;;;;;5037386;28;20041;-70
2023/08/10 08:44:08;;;;;;;1.70;0.50;;;16.90;99.90;;;;;;5027381;28;20649;-70
2023/08/10 08:46:39;;;;;;;2.15;0.60;;;16.90;99.90;;;;;;5036615;28;20046;-70
2023/08/10 08:49:05;;;;;;;0.80;0.50;;;17.00;99.90;;;;;;5033475;28;20049;-70
2023/08/10 08:51:31;;;;;;;3.72;0.68;;;17.00;99.90;;;;;;5034451;28;20467;-70
2023/08/10 08:54:00;;;;;;;1.00;0.30;;;17.00;99.90;;;;;;5066935;28;20391;-73
2023/08/10 08:56:26;;;;;;;2.50;0.47;;;17.10;99.90;;;;;;5037991;28;20564;-71
2023/08/10 08:58:53;;;;;;;0.68;0.35;;;17.10;99.90;;;;;;5035747;28;20041;-71
2023/08/10 09:01:19;;;;;;;1.15;0.47;;;17.10;99.90;;;;;;5068725;28;20079;-71
2023/08/10 09:03:46;;;;;;;2.85;0.30;;;17.10;99.90;;;;;;5037002;28;20398;-71
2023/08/10 09:06:11;;;;;;;1.33;0.50;;;17.10;99.90;;;;;;5033198;28;20047;-72
2023/08/10 09:08:38;;;;;;;1.70;0.50;;;17.10;99.90;;;;;;5069277;28;20029;-72
2023/08/10 09:11:05;;;;;;;2.20;0.63;;;17.20;99.90;;;;;;5037079;28;20094;-72
2023/08/10 09:13:30;;;;;;;2.15;0.60;;;17.20;99.90;;;;;;5019404;28;20475;-73
2023/08/10 09:16:25;;;;;;;1.25;0.40;;;17.20;99.90;;;;;;5037091;28;20036;-72
2023/08/10 09:18:51;;;;;;;3.00;0.50;;;17.20;99.90;;;;;;5037362;28;20049;-72
2023/08/10 09:21:23;;;;;;;5.13;0.82;;;17.20;99.90;;;;;;5038152;28;20067;-74
2023/08/10 09:23:53;;;;;;;2.67;0.50;;;17.20;99.90;;;;;;5040859;28;20075;-72
2023/08/10 09:26:21;;;;;;;3.30;0.45;;;17.20;99.90;;;;;;5039660;28;21260;-74
2023/08/10 09:28:48;;;;;;;4.10;0.52;;;17.20;99.90;;;;;;5039959;28;20042;-71
2023/08/10 09:31:20;;;;;;;2.20;0.50;;;17.30;99.90;;;;;;5038869;28;20483;-75
2023/08/10 09:33:51;;;;;;;2.97;0.70;;;17.30;99.90;;;;;;5037174;28;20499;-71
2023/08/10 09:36:25;;;;;;;2.38;0.45;;;17.30;99.90;;;;;;5017671;28;20380;-71
2023/08/10 09:38:52;;;;;;;2.97;0.50;;;17.30;99.90;;;;;;5039821;28;20457;-71
2023/08/10 09:41:20;;;;;;;1.27;0.57;;;17.30;99.90;;;;;;5071771;28;20040;-71
2023/08/10 09:43:46;;;;;;;0.82;0.30;;;17.30;99.90;;;;;;5072892;28;20128;-71
2023/08/10 09:46:16;;;;;;;1.17;0.40;;;17.30;99.90;;;;;;5040724;28;20056;-72
2023/08/10 09:48:45;;;;;;;1.40;0.60;;;17.30;99.90;;;;;;5039124;28;20044;-71
2023/08/10 09:51:11;;;;;;;1.08;0.40;;;17.30;99.90;;;;;;5056101;28;20143;-71
2023/08/10 09:53:37;;;;;;;2.20;0.40;;;17.30;99.90;;;;;;5069827;28;20044;-71
2023/08/10 09:56:07;;;;;;;2.05;0.70;;;17.30;99.90;;;;;;5038010;28;20048;-71
2023/08/10 09:58:40;;;;;;;1.95;0.70;;;17.30;99.90;;;;;;5055083;28;20187;-71
2023/08/10 10:01:07;;;;;;;4.50;0.80;;;17.30;99.90;;;;;;5040283;28;20033;-72
2023/08/10 10:03:34;;;;;;;3.10;0.50;;;17.30;99.90;;;;;;5040575;28;20486;-71
2023/08/10 10:06:00;;;;;;;3.38;0.50;;;17.30;99.90;;;;;;5037976;28;20033;-72
2023/08/10 10:08:27;;;;;;;2.33;0.70;;;17.30;99.90;;;;;;5034795;28;20116;-73
2023/08/10 10:10:59;;;;;;;2.00;0.50;;;17.30;99.90;;;;;;5037504;28;20075;-71
2023/08/10 10:13:25;;;;;;;0.93;0.40;;;17.30;99.90;;;;;;5038223;28;20068;-72
2023/08/10 10:15:54;;;;;;;1.35;0.30;;;17.30;99.90;;;;;;5052268;28;20064;-71
2023/08/10 10:18:20;;;;;;;2.85;0.55;;;17.30;99.90;;;;;;5036877;28;20037;-72
2023/08/10 10:20:46;;;;;;;2.10;0.55;;;17.40;99.90;;;;;;5039645;28;20037;-72
2023/08/10 10:23:20;;;;;;;3.05;0.50;;;17.30;99.90;;;;;;5039290;28;20037;-71
2023/08/10 10:26:00;;;;;;;1.25;0.50;;;17.30;99.90;;;;;;5055800;28;20044;-72
2023/08/10 10:28:31;;;;;;;1.48;0.50;;;17.30;99.90;;;;;;5039166;28;20067;-72
2023/08/10 10:31:10;;;;;;;2.63;0.65;;;17.30;99.90;;;;;;5039734;28;20195;-71
2023/08/10 10:33:38;;;;;;;1.65;0.57;;;17.30;99.90;;;;;;5073537;28;20410;-71
2023/08/10 10:36:05;;;;;;;1.85;0.40;;;17.30;99.90;;;;;;5040160;28;20403;-72
2023/08/10 10:38:31;;;;;;;0.93;0.40;;;17.30;99.90;;;;;;5071423;28;20036;-71
2023/08/10 10:41:13;;;;;;;1.58;0.40;;;17.30;99.90;;;;;;5041873;28;20124;-71
2023/08/10 10:43:39;;;;;;;1.20;0.50;;;17.30;99.90;;;;;;5039341;28;20076;-71
2023/08/10 10:46:04;;;;;;;1.40;0.50;;;17.30;99.90;;;;;;5037725;28;20064;-72
2023/08/10 10:48:35;;;;;;;2.83;0.63;;;17.30;99.90;;;;;;5037905;28;20052;-71
2023/08/10 10:51:05;;;;;;;1.95;0.50;;;17.30;99.90;;;;;;5069724;28;20086;-71
2023/08/10 10:53:32;;;;;;;3.85;0.52;;;17.30;99.90;;;;;;5039443;28;20025;-71
2023/08/10 10:55:58;;;;;;;1.60;0.40;;;17.40;99.90;;;;;;5039488;28;20041;-71
2023/08/10 10:58:29;;;;;;;2.25;0.70;;;17.40;99.90;;;;;;5039987;28;20398;-72
2023/08/10 11:00:55;;;;;;;1.55;0.50;;;17.40;99.90;;;;;;5042261;28;20625;-71
2023/08/10 11:03:21;;;;;;;2.92;0.50;;;17.50;99.90;;;;;;5036810;28;20116;-71
2023/08/10 11:05:46;;;;;;;1.38;0.50;;;17.50;99.90;;;;;;5057302;28;20434;-71
2023/08/10 11:08:14;;;;;;;3.60;0.90;;;17.50;99.90;;;;;;5038819;28;20063;-71
2023/08/10 11:10:42;;;;;;;1.83;0.70;;;17.60;99.90;;;;;;5020026;28;20048;-73
2023/08/10 11:13:09;;;;;;;1.33;0.40;;;17.50;99.90;;;;;;5038945;28;20049;-71
2023/08/10 11:15:36;;;;;;;2.28;0.70;;;17.60;99.90;;;;;;5037018;28;20037;-71
2023/08/10 11:18:11;;;;;;;5.70;0.70;;;17.50;99.90;;;;;;5038100;28;20992;-71
2023/08/10 11:20:45;;;;;;;3.70;0.80;;;17.60;99.90;;;;;;5038319;28;20044;-71
2023/08/10 11:23:11;;;;;;;1.30;0.57;;;17.60;99.90;;;;;;5037320;28;20037;-71
2023/08/10 11:25:51;;;;;;;1.02;0.50;;;17.60;99.90;;;;;;5040654;28;20184;-71
2023/08/10 11:28:19;;;;;;;3.65;0.90;;;17.60;99.90;;;;;;5043665;28;20530;-71
2023/08/10 11:30:45;;;;;;;1.20;0.50;;;17.60;99.90;;;;;;5039046;28;20052;-71
2023/08/10 11:33:11;;;;;;;2.30;0.60;;;17.70;99.90;;;;;;5054477;28;20040;-71
2023/08/10 11:35:36;;;;;;;4.47;0.80;;;17.70;99.90;;;;;;5070871;28;20071;-71
2023/08/10 11:38:02;;;;;;;2.08;0.63;;;17.70;99.90;;;;;;5032508;28;20041;-71
2023/08/10 11:40:28;;;;;;;2.08;1.00;;;17.80;99.90;;;;;;5033715;28;20048;-71
2023/08/10 11:43:10;;;;;;;2.60;0.93;;;17.80;99.90;;;;;;5069102;28;20110;-71
2023/08/10 11:45:37;;;;;;;1.70;0.80;;;17.80;99.90;;;;;;5038225;28;20071;-71
2023/08/10 11:48:06;;;;;;;2.10;0.80;;;17.80;99.90;;;;;;5039308;28;20076;-70
2023/08/10 11:50:32;;;;;;;8.02;1.73;;;17.80;99.90;;;;;;5039936;28;20048;-71
2023/08/10 11:53:19;;;;;;;5.05;1.40;;;17.80;99.90;;;;;;5048812;28;20098;-71
2023/08/10 11:55:47;;;;;;;5.85;1.60;;;17.80;99.90;;;;;;5037405;28;20040;-71
2023/08/10 11:58:14;;;;;;;3.22;0.90;;;17.70;99.90;;;;;;5040617;28;20112;-71
2023/08/10 12:00:51;;;;;;;2.90;1.20;;;17.70;99.90;;;;;;5033135;28;20894;-71
2023/08/10 12:03:22;;;;;;;5.82;1.20;;;17.70;99.90;;;;;;5033464;28;20078;-70
2023/08/10 12:05:50;;;;;;;4.15;1.25;;;17.70;99.90;;;;;;5030174;28;20095;-70
2023/08/10 12:08:30;;;;;;;3.75;0.98;;;17.70;99.90;;;;;;5051922;28;20190;-71
2023/08/10 12:11:13;;;;;;;3.10;0.90;;;17.70;99.90;;;;;;5035715;28;20052;-70
2023/08/10 12:13:44;;;;;;;5.38;0.93;;;17.70;99.90;;;;;;5037878;28;20533;-70
2023/08/10 12:16:10;;;;;;;2.70;0.80;;;17.70;99.90;;;;;;5039376;28;20133;-71
2023/08/10 12:18:37;;;;;;;3.05;0.80;;;17.80;99.90;;;;;;5039888;28;20548;-71
2023/08/10 12:21:03;;;;;;;3.25;1.10;;;17.80;99.90;;;;;;5036950;28;20037;-71
2023/08/10 12:23:29;;;;;;;18.35;2.30;;;17.90;99.90;;;;;;5032192;28;20562;-71
2023/08/10 12:25:55;;;;;;;3.38;1.33;;;17.90;99.90;;;;;;5039310;28;20052;-71
2023/08/10 12:28:20;;;;;;;2.85;1.23;;;18.00;99.90;;;;;;5038237;28;20484;-71
2023/08/10 12:30:48;;;;;;;3.15;1.15;;;18.00;99.90;;;;;;5039860;28;20136;-71
2023/08/10 12:33:14;;;;;;;3.17;0.82;;;18.10;99.90;;;;;;5034969;28;20107;-71
2023/08/10 12:35:40;;;;;;;2.50;1.00;;;18.10;99.90;;;;;;5037070;28;20036;-71
2023/08/10 12:38:06;;;;;;;2.00;1.05;;;18.20;99.90;;;;;;5035448;28;20143;-71
2023/08/10 12:40:33;;;;;;;3.78;1.20;;;18.20;99.90;;;;;;5036057;28;20399;-71
2023/08/10 12:42:58;;;;;;;4.57;1.50;;;18.20;99.90;;;;;;5068518;28;20047;-70
2023/08/10 12:45:25;;;;;;;5.78;1.70;;;18.30;99.90;;;;;;5038030;28;20032;-71
2023/08/10 12:47:50;;;;;;;4.80;1.30;;;18.30;99.90;;;;;;5031464;28;20033;-71